sensor_id;sensor_type;location;lat;lon;timestamp;temperature;humidity
51884;DHT22;37915;53.254;6.598;2023-03-16T05:10:30;3.70;99.90
51884;DHT22;37915;53.254;6.598;2023-03-16T05:12:56;3.90;99.90
51884;DHT22;37915;53.254;6.598;2023-03-16T05:15:21;3.90;99.90
51884;DHT22;37915;53.254;6.598;2023-03-16T05:17:47;3.90;99.90
51884;DHT22;37915;53.254;6.598;2023-03-16T05:20:13;3.90;99.90
51884;DHT22;37915;53.254;6.598;2023-03-16T05:22:39;3.90;99.90
51884;DHT22;37915;53.254;6.598;2023-03-16T05:25:05;4.10;99.90
51884;DHT22;37915;53.254;6.598;2023-03-16T05:27:31;3.90;99.90
51884;DHT22;37915;53.254;6.598;2023-03-16T05:29:56;4.00;99.90
51884;DHT22;37915;53.254;6.598;2023-03-16T05:32:22;3.90;99.90
51884;DHT22;37915;53.254;6.598;2023-03-16T05:34:48;4.00;99.90
51884;DHT22;37915;53.254;6.598;2023-03-16T05:37:14;3.90;99.90
51884;DHT22;37915;53.254;6.598;2023-03-16T05:39:39;4.40;99.90
51884;DHT22;37915;53.254;6.598;2023-03-16T05:42:05;4.20;99.90
51884;DHT22;37915;53.254;6.598;2023-03-16T05:44:31;3.90;99.90
51884;DHT22;37915;53.254;6.598;2023-03-16T05:46:57;4.10;99.90
51884;DHT22;37915;53.254;6.598;2023-03-16T05:49:23;4.00;99.90
51884;DHT22;37915;53.254;6.598;2023-03-16T05:51:49;4.00;99.90
51884;DHT22;37915;53.254;6.598;2023-03-16T05:54:14;4.20;99.90
51884;DHT22;37915;53.254;6.598;2023-03-16T05:56:40;4.00;99.90
51884;DHT22;37915;53.254;6.598;2023-03-16T05:59:05;4.00;99.90
51884;DHT22;37915;53.254;6.598;2023-03-16T06:01:31;4.20;99.90
51884;DHT22;37915;53.254;6.598;2023-03-16T06:03:58;4.00;99.90
51884;DHT22;37915;53.254;6.598;2023-03-16T06:06:24;4.20;99.90
51884;DHT22;37915;53.254;6.598;2023-03-16T06:08:49;3.90;99.90
51884;DHT22;37915;53.254;6.598;2023-03-16T06:11:15;3.90;99.90
51884;DHT22;37915;53.254;6.598;2023-03-16T06:13:40;4.30;99.90
51884;DHT22;37915;53.254;6.598;2023-03-16T06:16:06;4.00;99.90
51884;DHT22;37915;53.254;6.598;2023-03-16T06:18:32;3.90;99.90
51884;DHT22;37915;53.254;6.598;2023-03-16T06:20:58;3.90;99.90
51884;DHT22;37915;53.254;6.598;2023-03-16T06:23:24;3.40;99.90
51884;DHT22;37915;53.254;6.598;2023-03-16T06:25:49;4.00;99.90
51884;DHT22;37915;53.254;6.598;2023-03-16T06:28:15;4.00;99.90
51884;DHT22;37915;53.254;6.598;2023-03-16T06:30:41;3.90;99.90
51884;DHT22;37915;53.254;6.598;2023-03-16T06:33:07;4.00;99.90
51884;DHT22;37915;53.254;6.598;2023-03-16T06:35:32;4.00;99.90
51884;DHT22;37915;53.254;6.598;2023-03-16T06:37:58;4.00;99.90
51884;DHT22;37915;53.254;6.598;2023-03-16T06:40:23;3.90;99.90
51884;DHT22;37915;53.254;6.598;2023-03-16T06:42:49;4.00;99.90
51884;DHT22;37915;53.254;6.598;2023-03-16T06:45:16;4.00;99.90
51884;DHT22;37915;53.254;6.598;2023-03-16T06:47:42;4.00;99.90
51884;DHT22;37915;53.254;6.598;2023-03-16T06:50:08;4.20;99.90
51884;DHT22;37915;53.254;6.598;2023-03-16T06:52:34;4.00;99.90
51884;DHT22;37915;53.254;6.598;2023-03-16T06:55:00;4.10;99.90
51884;DHT22;37915;53.254;6.598;2023-03-16T06:57:25;4.10;99.90
51884;DHT22;37915;53.254;6.598;2023-03-16T06:59:51;4.10;99.90
51884;DHT22;37915;53.254;6.598;2023-03-16T07:02:16;4.40;99.90
51884;DHT22;37915;53.254;6.598;2023-03-16T07:04:44;4.80;99.90
51884;DHT22;37915;53.254;6.598;2023-03-16T07:07:10;4.10;99.90
51884;DHT22;37915;53.254;6.598;2023-03-16T07:09:36;4.20;99.90
51884;DHT22;37915;53.254;6.598;2023-03-16T07:12:02;4.20;99.90
51884;DHT22;37915;53.254;6.598;2023-03-16T07:14:28;4.20;99.90
51884;DHT22;37915;53.254;6.598;2023-03-16T07:16:53;4.90;99.90
51884;DHT22;37915;53.254;6.598;2023-03-16T07:19:19;4.40;99.90
51884;DHT22;37915;53.254;6.598;2023-03-16T07:21:44;4.30;99.90
51884;DHT22;37915;53.254;6.598;2023-03-16T07:24:10;4.40;99.90
51884;DHT22;37915;53.254;6.598;2023-03-16T07:26:36;4.30;99.90
51884;DHT22;37915;53.254;6.598;2023-03-16T07:29:02;4.40;99.90
51884;DHT22;37915;53.254;6.598;2023-03-16T07:31:30;4.40;99.90
51884;DHT22;37915;53.254;6.598;2023-03-16T07:33:57;4.40;99.90
51884;DHT22;37915;53.254;6.598;2023-03-16T07:36:22;4.50;99.90
51884;DHT22;37915;53.254;6.598;2023-03-16T07:38:48;4.80;99.90
51884;DHT22;37915;53.254;6.598;2023-03-16T07:41:13;4.50;99.90
51884;DHT22;37915;53.254;6.598;2023-03-16T07:43:39;4.60;99.90
51884;DHT22;37915;53.254;6.598;2023-03-16T07:46:05;4.60;99.90
51884;DHT22;37915;53.254;6.598;2023-03-16T07:48:30;4.60;99.90
51884;DHT22;37915;53.254;6.598;2023-03-16T07:50:56;4.60;99.90
51884;DHT22;37915;53.254;6.598;2023-03-16T07:53:22;5.10;99.90
51884;DHT22;37915;53.254;6.598;2023-03-16T07:55:48;4.70;99.90
51884;DHT22;37915;53.254;6.598;2023-03-16T07:58:13;5.30;99.90
51884;DHT22;37915;53.254;6.598;2023-03-16T08:00:39;4.70;99.90
51884;DHT22;37915;53.254;6.598;2023-03-16T08:03:07;4.80;99.90
51884;DHT22;37915;53.254;6.598;2023-03-16T08:05:32;4.90;99.90
51884;DHT22;37915;53.254;6.598;2023-03-16T08:07:58;5.30;99.90
51884;DHT22;37915;53.254;6.598;2023-03-16T08:10:25;4.80;99.90
51884;DHT22;37915;53.254;6.598;2023-03-16T08:12:51;4.90;99.90
51884;DHT22;37915;53.254;6.598;2023-03-16T08:15:17;5.00;99.90
51884;DHT22;37915;53.254;6.598;2023-03-16T08:17:43;4.90;99.90
51884;DHT22;37915;53.254;6.598;2023-03-16T08:20:09;5.00;99.90
51884;DHT22;37915;53.254;6.598;2023-03-16T08:22:37;5.00;99.90
51884;DHT22;37915;53.254;6.598;2023-03-16T08:25:03;5.00;99.90
51884;DHT22;37915;53.254;6.598;2023-03-16T08:27:30;5.00;99.90
51884;DHT22;37915;53.254;6.598;2023-03-16T08:29:56;5.30;99.90
51884;DHT22;37915;53.254;6.598;2023-03-16T08:32:21;5.00;99.90
51884;DHT22;37915;53.254;6.598;2023-03-16T08:34:47;5.00;99.90
51884;DHT22;37915;53.254;6.598;2023-03-16T08:37:13;5.00;99.90
51884;DHT22;37915;53.254;6.598;2023-03-16T08:39:39;5.00;99.90
51884;DHT22;37915;53.254;6.598;2023-03-16T08:42:04;5.20;99.90
51884;DHT22;37915;53.254;6.598;2023-03-16T08:44:31;5.00;99.90
51884;DHT22;37915;53.254;6.598;2023-03-16T08:46:58;5.00;99.90
51884;DHT22;37915;53.254;6.598;2023-03-16T08:49:25;5.00;99.90
51884;DHT22;37915;53.254;6.598;2023-03-16T08:51:51;5.00;99.90
51884;DHT22;37915;53.254;6.598;2023-03-16T08:54:18;5.00;99.90
51884;DHT22;37915;53.254;6.598;2023-03-16T08:56:44;5.00;99.90
51884;DHT22;37915;53.254;6.598;2023-03-16T08:59:09;5.00;99.90
51884;DHT22;37915;53.254;6.598;2023-03-16T09:01:35;5.00;99.90
51884;DHT22;37915;53.254;6.598;2023-03-16T09:04:01;5.00;99.90
51884;DHT22;37915;53.254;6.598;2023-03-16T09:06:27;5.20;99.90
51884;DHT22;37915;53.254;6.598;2023-03-16T09:08:53;5.10;99.90
51884;DHT22;37915;53.254;6.598;2023-03-16T09:11:20;5.10;99.90
51884;DHT22;37915;53.254;6.598;2023-03-16T09:13:46;5.10;99.90
51884;DHT22;37915;53.254;6.598;2023-03-16T09:16:12;5.10;99.90
51884;DHT22;37915;53.254;6.598;2023-03-16T09:18:39;5.10;99.90
51884;DHT22;37915;53.254;6.598;2023-03-16T09:21:06;5.30;99.90
51884;DHT22;37915;53.254;6.598;2023-03-16T09:23:32;5.10;99.90
51884;DHT22;37915;53.254;6.598;2023-03-16T09:25:59;5.10;99.90
51884;DHT22;37915;53.254;6.598;2023-03-16T09:28:26;5.10;99.90
51884;DHT22;37915;53.254;6.598;2023-03-16T09:30:55;5.10;99.90
51884;DHT22;37915;53.254;6.598;2023-03-16T09:33:22;5.10;99.90
51884;DHT22;37915;53.254;6.598;2023-03-16T09:35:48;5.00;99.90
51884;DHT22;37915;53.254;6.598;2023-03-16T09:38:13;5.30;99.90
51884;DHT22;37915;53.254;6.598;2023-03-16T09:40:39;5.00;99.90
51884;DHT22;37915;53.254;6.598;2023-03-16T09:48:18;5.10;99.90
51884;DHT22;37915;53.254;6.598;2023-03-16T09:50:45;5.10;99.90
51884;DHT22;37915;53.254;6.598;2023-03-16T09:53:23;5.20;99.90
51884;DHT22;37915;53.254;6.598;2023-03-16T09:55:54;5.30;99.90
51884;DHT22;37915;53.254;6.598;2023-03-16T09:58:22;5.40;99.90
51884;DHT22;37915;53.254;6.598;2023-03-16T10:00:51;5.40;99.90
51884;DHT22;37915;53.254;6.598;2023-03-16T10:06:01;5.50;99.90
51884;DHT22;37915;53.254;6.598;2023-03-16T10:08:36;5.60;99.90
51884;DHT22;37915;53.254;6.598;2023-03-16T10:13:43;5.70;99.90
51884;DHT22;37915;53.254;6.598;2023-03-16T10:16:53;5.60;99.90
51884;DHT22;37915;53.254;6.598;2023-03-16T10:21:46;5.60;99.90
51884;DHT22;37915;53.254;6.598;2023-03-16T10:26:55;5.70;99.90
51884;DHT22;37915;53.254;6.598;2023-03-16T10:29:25;5.70;99.90
51884;DHT22;37915;53.254;6.598;2023-03-16T10:31:53;5.70;99.90
51884;DHT22;37915;53.254;6.598;2023-03-16T10:34:19;5.70;99.90
51884;DHT22;37915;53.254;6.598;2023-03-16T10:36:45;5.70;99.90
51884;DHT22;37915;53.254;6.598;2023-03-16T10:39:12;6.00;99.90
51884;DHT22;37915;53.254;6.598;2023-03-16T10:41:39;5.70;99.90
51884;DHT22;37915;53.254;6.598;2023-03-16T10:44:11;5.70;99.90
51884;DHT22;37915;53.254;6.598;2023-03-16T10:47:21;5.70;99.90
51884;DHT22;37915;53.254;6.598;2023-03-16T10:49:39;5.70;99.90
51884;DHT22;37915;53.254;6.598;2023-03-16T10:52:14;5.70;99.90
51884;DHT22;37915;53.254;6.598;2023-03-16T10:54:45;5.70;99.90
51884;DHT22;37915;53.254;6.598;2023-03-16T10:59:48;5.60;99.90
51884;DHT22;37915;53.254;6.598;2023-03-16T11:02:16;5.60;99.90
51884;DHT22;37915;53.254;6.598;2023-03-16T11:04:42;5.60;99.90
51884;DHT22;37915;53.254;6.598;2023-03-16T11:07:08;5.60;99.90
51884;DHT22;37915;53.254;6.598;2023-03-16T11:09:39;5.60;99.90
51884;DHT22;37915;53.254;6.598;2023-03-16T11:14:46;5.70;99.90
51884;DHT22;37915;53.254;6.598;2023-03-16T11:17:14;5.70;99.90
51884;DHT22;37915;53.254;6.598;2023-03-16T11:19:58;5.70;99.90
51884;DHT22;37915;53.254;6.598;2023-03-16T11:22:25;5.70;99.90
51884;DHT22;37915;53.254;6.598;2023-03-16T11:27:24;5.70;99.90
51884;DHT22;37915;53.254;6.598;2023-03-16T11:32:18;5.80;99.90
51884;DHT22;37915;53.254;6.598;2023-03-16T11:34:44;5.90;99.90
51884;DHT22;37915;53.254;6.598;2023-03-16T11:39:40;6.00;99.90
51884;DHT22;37915;53.254;6.598;2023-03-16T11:42:13;6.00;99.90
51884;DHT22;37915;53.254;6.598;2023-03-16T11:44:42;6.20;99.90
51884;DHT22;37915;53.254;6.598;2023-03-16T11:49:58;6.20;99.90
51884;DHT22;37915;53.254;6.598;2023-03-16T11:52:35;6.30;99.90
51884;DHT22;37915;53.254;6.598;2023-03-16T12:00:26;6.30;99.90
51884;DHT22;37915;53.254;6.598;2023-03-16T12:13:02;6.40;99.90
51884;DHT22;37915;53.254;6.598;2023-03-16T12:18:12;6.60;99.90
51884;DHT22;37915;53.254;6.598;2023-03-16T12:20:43;6.70;99.90
51884;DHT22;37915;53.254;6.598;2023-03-16T12:23:14;6.70;99.90
51884;DHT22;37915;53.254;6.598;2023-03-16T12:25:47;6.90;99.90
51884;DHT22;37915;53.254;6.598;2023-03-16T12:28:17;6.90;99.90
51884;DHT22;37915;53.254;6.598;2023-03-16T12:38:41;7.30;99.90
51884;DHT22;37915;53.254;6.598;2023-03-16T12:44:00;7.40;99.90
51884;DHT22;37915;53.254;6.598;2023-03-16T12:49:01;7.50;99.90
51884;DHT22;37915;53.254;6.598;2023-03-16T12:51:36;7.60;99.90
51884;DHT22;37915;53.254;6.598;2023-03-16T12:54:03;7.60;99.90
51884;DHT22;37915;53.254;6.598;2023-03-16T12:56:34;7.60;99.90
51884;DHT22;37915;53.254;6.598;2023-03-16T12:59:01;7.70;99.90
51884;DHT22;37915;53.254;6.598;2023-03-16T13:01:28;7.80;99.90
51884;DHT22;37915;53.254;6.598;2023-03-16T13:03:58;7.70;99.90
51884;DHT22;37915;53.254;6.598;2023-03-16T13:06:28;7.80;99.90
51884;DHT22;37915;53.254;6.598;2023-03-16T13:08:56;7.80;99.90
51884;DHT22;37915;53.254;6.598;2023-03-16T13:11:24;7.80;99.90
51884;DHT22;37915;53.254;6.598;2023-03-16T13:13:51;7.90;99.90
51884;DHT22;37915;53.254;6.598;2023-03-16T13:16:25;7.80;99.90
51884;DHT22;37915;53.254;6.598;2023-03-16T13:18:51;7.80;99.90
51884;DHT22;37915;53.254;6.598;2023-03-16T13:21:18;7.80;99.90
51884;DHT22;37915;53.254;6.598;2023-03-16T13:23:52;7.80;99.90
51884;DHT22;37915;53.254;6.598;2023-03-16T13:26:25;7.90;99.90
51884;DHT22;37915;53.254;6.598;2023-03-16T13:28:55;7.90;99.90
51884;DHT22;37915;53.254;6.598;2023-03-16T13:31:23;7.90;99.90
51884;DHT22;37915;53.254;6.598;2023-03-16T13:33:50;8.00;99.90
51884;DHT22;37915;53.254;6.598;2023-03-16T13:36:17;8.00;99.90
51884;DHT22;37915;53.254;6.598;2023-03-16T13:38:43;8.10;99.90
51884;DHT22;37915;53.254;6.598;2023-03-16T13:41:19;8.20;99.90
51884;DHT22;37915;53.254;6.598;2023-03-16T13:43:45;8.20;99.90
51884;DHT22;37915;53.254;6.598;2023-03-16T13:46:14;8.30;99.90
51884;DHT22;37915;53.254;6.598;2023-03-16T13:48:41;8.40;99.90
51884;DHT22;37915;53.254;6.598;2023-03-16T13:51:15;8.50;99.90
51884;DHT22;37915;53.254;6.598;2023-03-16T13:53:41;8.60;99.90
51884;DHT22;37915;53.254;6.598;2023-03-16T13:56:11;8.70;99.90
51884;DHT22;37915;53.254;6.598;2023-03-16T13:58:37;8.70;99.90
51884;DHT22;37915;53.254;6.598;2023-03-16T14:01:14;8.80;99.90
51884;DHT22;37915;53.254;6.598;2023-03-16T14:03:44;8.70;99.90
51884;DHT22;37915;53.254;6.598;2023-03-16T14:06:17;8.80;99.90
51884;DHT22;37915;53.254;6.598;2023-03-16T14:08:45;8.70;99.90
51884;DHT22;37915;53.254;6.598;2023-03-16T14:11:13;8.70;99.90
51884;DHT22;37915;53.254;6.598;2023-03-16T14:13:39;8.80;99.90
51884;DHT22;37915;53.254;6.598;2023-03-16T14:18:35;8.80;99.90
51884;DHT22;37915;53.254;6.598;2023-03-16T14:21:06;8.80;99.90
51884;DHT22;37915;53.254;6.598;2023-03-16T14:23:33;8.70;99.90
51884;DHT22;37915;53.254;6.598;2023-03-16T14:26:02;8.60;99.90
51884;DHT22;37915;53.254;6.598;2023-03-16T14:28:29;8.60;99.90
51884;DHT22;37915;53.254;6.598;2023-03-16T14:31:05;8.60;99.90
51884;DHT22;37915;53.254;6.598;2023-03-16T14:33:32;8.60;99.90
51884;DHT22;37915;53.254;6.598;2023-03-16T14:35:59;8.60;99.90
51884;DHT22;37915;53.254;6.598;2023-03-16T14:38:35;8.60;99.90
51884;DHT22;37915;53.254;6.598;2023-03-16T14:41:02;8.70;99.90
51884;DHT22;37915;53.254;6.598;2023-03-16T14:43:30;8.70;99.90
51884;DHT22;37915;53.254;6.598;2023-03-16T14:45:57;8.70;99.90
51884;DHT22;37915;53.254;6.598;2023-03-16T14:48:23;8.70;99.90
51884;DHT22;37915;53.254;6.598;2023-03-16T14:50:58;8.70;99.90
51884;DHT22;37915;53.254;6.598;2023-03-16T14:53:26;8.80;99.90
51884;DHT22;37915;53.254;6.598;2023-03-16T14:55:53;8.80;99.90
51884;DHT22;37915;53.254;6.598;2023-03-16T14:58:19;8.80;99.90
51884;DHT22;37915;53.254;6.598;2023-03-16T15:00:45;8.90;99.90
51884;DHT22;37915;53.254;6.598;2023-03-16T15:03:12;9.00;99.90
51884;DHT22;37915;53.254;6.598;2023-03-16T15:05:39;9.10;99.90
51884;DHT22;37915;53.254;6.598;2023-03-16T15:08:10;9.10;99.90
51884;DHT22;37915;53.254;6.598;2023-03-16T15:10:37;9.10;99.90
51884;DHT22;37915;53.254;6.598;2023-03-16T15:13:10;9.10;99.90
51884;DHT22;37915;53.254;6.598;2023-03-16T15:15:41;9.20;99.90
51884;DHT22;37915;53.254;6.598;2023-03-16T15:18:12;9.00;99.90
51884;DHT22;37915;53.254;6.598;2023-03-16T15:20:39;9.20;99.90
51884;DHT22;37915;53.254;6.598;2023-03-16T15:23:05;9.20;99.90
51884;DHT22;37915;53.254;6.598;2023-03-16T15:25:35;9.20;99.90
51884;DHT22;37915;53.254;6.598;2023-03-16T15:28:23;9.10;99.90
51884;DHT22;37915;53.254;6.598;2023-03-16T15:30:55;9.10;99.90
51884;DHT22;37915;53.254;6.598;2023-03-16T15:33:21;9.10;99.90
51884;DHT22;37915;53.254;6.598;2023-03-16T15:35:48;9.00;99.90
51884;DHT22;37915;53.254;6.598;2023-03-16T15:38:19;9.00;99.90
51884;DHT22;37915;53.254;6.598;2023-03-16T15:40:45;9.00;99.90
51884;DHT22;37915;53.254;6.598;2023-03-16T15:43:13;9.00;99.90
51884;DHT22;37915;53.254;6.598;2023-03-16T15:45:38;9.00;99.90
51884;DHT22;37915;53.254;6.598;2023-03-16T15:48:04;9.00;99.90
51884;DHT22;37915;53.254;6.598;2023-03-16T15:50:30;9.00;99.90
51884;DHT22;37915;53.254;6.598;2023-03-16T15:53:01;9.00;99.90
51884;DHT22;37915;53.254;6.598;2023-03-16T15:55:31;9.00;99.90
51884;DHT22;37915;53.254;6.598;2023-03-16T15:57:58;9.00;99.90
51884;DHT22;37915;53.254;6.598;2023-03-16T16:00:26;9.00;99.90
51884;DHT22;37915;53.254;6.598;2023-03-16T16:02:52;9.00;99.90
51884;DHT22;37915;53.254;6.598;2023-03-16T16:05:18;9.10;99.90
51884;DHT22;37915;53.254;6.598;2023-03-16T16:07:44;9.00;99.90
51884;DHT22;37915;53.254;6.598;2023-03-16T16:10:13;9.00;99.90
51884;DHT22;37915;53.254;6.598;2023-03-16T16:12:39;9.00;99.90
51884;DHT22;37915;53.254;6.598;2023-03-16T16:15:11;9.00;99.90
51884;DHT22;37915;53.254;6.598;2023-03-16T16:17:40;9.00;99.90
51884;DHT22;37915;53.254;6.598;2023-03-16T16:20:14;9.00;99.90
51884;DHT22;37915;53.254;6.598;2023-03-16T16:22:40;9.00;99.90
51884;DHT22;37915;53.254;6.598;2023-03-16T16:25:07;9.00;99.90
51884;DHT22;37915;53.254;6.598;2023-03-16T16:27:33;8.90;99.90
51884;DHT22;37915;53.254;6.598;2023-03-16T16:29:59;9.00;99.90
51884;DHT22;37915;53.254;6.598;2023-03-16T16:32:25;8.90;99.90
51884;DHT22;37915;53.254;6.598;2023-03-16T16:34:50;8.90;99.90
51884;DHT22;37915;53.254;6.598;2023-03-16T16:37:18;8.90;99.90
51884;DHT22;37915;53.254;6.598;2023-03-16T16:39:44;8.90;99.90
51884;DHT22;37915;53.254;6.598;2023-03-16T16:42:13;8.80;99.90
51884;DHT22;37915;53.254;6.598;2023-03-16T16:44:39;8.80;99.90
51884;DHT22;37915;53.254;6.598;2023-03-16T16:47:17;8.70;99.90
51884;DHT22;37915;53.254;6.598;2023-03-16T16:49:43;8.70;99.90
51884;DHT22;37915;53.254;6.598;2023-03-16T16:52:12;8.70;99.90
51884;DHT22;37915;53.254;6.598;2023-03-16T16:54:39;8.60;99.90
51884;DHT22;37915;53.254;6.598;2023-03-16T16:57:07;8.60;99.90
51884;DHT22;37915;53.254;6.598;2023-03-16T16:59:37;8.60;99.90
51884;DHT22;37915;53.254;6.598;2023-03-16T17:02:11;8.60;99.90
51884;DHT22;37915;53.254;6.598;2023-03-16T17:04:41;8.50;99.90
51884;DHT22;37915;53.254;6.598;2023-03-16T17:07:07;8.60;99.90
51884;DHT22;37915;53.254;6.598;2023-03-16T17:09:35;8.50;99.90
51884;DHT22;37915;53.254;6.598;2023-03-16T17:12:01;8.50;99.90
51884;DHT22;37915;53.254;6.598;2023-03-16T17:14:26;8.50;99.90
51884;DHT22;37915;53.254;6.598;2023-03-16T17:16:52;8.40;99.90
51884;DHT22;37915;53.254;6.598;2023-03-16T17:19:19;8.30;99.90
51884;DHT22;37915;53.254;6.598;2023-03-16T17:21:45;8.20;99.90
51884;DHT22;37915;53.254;6.598;2023-03-16T17:24:11;8.20;99.90
51884;DHT22;37915;53.254;6.598;2023-03-16T17:26:38;8.10;99.90
51884;DHT22;37915;53.254;6.598;2023-03-16T17:29:13;8.10;99.90
51884;DHT22;37915;53.254;6.598;2023-03-16T17:31:41;8.00;99.90
51884;DHT22;37915;53.254;6.598;2023-03-16T17:34:17;8.00;99.90
51884;DHT22;37915;53.254;6.598;2023-03-16T17:36:43;7.90;99.90
51884;DHT22;37915;53.254;6.598;2023-03-16T17:39:14;7.90;99.90
51884;DHT22;37915;53.254;6.598;2023-03-16T17:41:40;7.90;99.90
51884;DHT22;37915;53.254;6.598;2023-03-16T17:44:06;7.80;99.90
51884;DHT22;37915;53.254;6.598;2023-03-16T17:46:34;7.80;99.90
51884;DHT22;37915;53.254;6.598;2023-03-16T17:49:00;7.70;99.90
51884;DHT22;37915;53.254;6.598;2023-03-16T17:51:26;7.70;99.90
51884;DHT22;37915;53.254;6.598;2023-03-16T17:53:52;7.70;99.90
51884;DHT22;37915;53.254;6.598;2023-03-16T17:56:20;7.60;99.90
51884;DHT22;37915;53.254;6.598;2023-03-16T17:58:47;7.50;99.90
51884;DHT22;37915;53.254;6.598;2023-03-16T18:01:13;7.50;99.90
51884;DHT22;37915;53.254;6.598;2023-03-16T18:03:39;7.40;99.90
51884;DHT22;37915;53.254;6.598;2023-03-16T18:06:19;7.40;99.90
51884;DHT22;37915;53.254;6.598;2023-03-16T18:08:46;7.40;99.90
51884;DHT22;37915;53.254;6.598;2023-03-16T18:11:16;7.40;99.90
51884;DHT22;37915;53.254;6.598;2023-03-16T18:13:43;7.30;99.90
51884;DHT22;37915;53.254;6.598;2023-03-16T18:16:12;7.30;99.90
51884;DHT22;37915;53.254;6.598;2023-03-16T18:18:39;7.40;99.90
51884;DHT22;37915;53.254;6.598;2023-03-16T18:21:17;7.40;99.90
51884;DHT22;37915;53.254;6.598;2023-03-16T18:23:42;7.30;99.90
51884;DHT22;37915;53.254;6.598;2023-03-16T18:26:08;7.30;99.90
51884;DHT22;37915;53.254;6.598;2023-03-16T18:28:35;7.30;99.90
51884;DHT22;37915;53.254;6.598;2023-03-16T18:31:01;7.30;99.90
51884;DHT22;37915;53.254;6.598;2023-03-16T18:33:32;7.30;99.90
51884;DHT22;37915;53.254;6.598;2023-03-16T18:35:59;7.30;99.90
51884;DHT22;37915;53.254;6.598;2023-03-16T18:38:33;7.30;99.90
51884;DHT22;37915;53.254;6.598;2023-03-16T18:41:00;7.30;99.90
51884;DHT22;37915;53.254;6.598;2023-03-16T18:43:26;7.30;99.90
51884;DHT22;37915;53.254;6.598;2023-03-16T18:45:52;7.30;99.90
51884;DHT22;37915;53.254;6.598;2023-03-16T18:48:25;7.30;99.90
51884;DHT22;37915;53.254;6.598;2023-03-16T18:50:51;7.30;99.90
51884;DHT22;37915;53.254;6.598;2023-03-16T18:53:17;7.30;99.90
51884;DHT22;37915;53.254;6.598;2023-03-16T18:55:44;7.30;99.90
51884;DHT22;37915;53.254;6.598;2023-03-16T18:58:13;7.30;99.90
51884;DHT22;37915;53.254;6.598;2023-03-16T19:00:41;7.20;99.90
51884;DHT22;37915;53.254;6.598;2023-03-16T19:03:08;7.20;99.90
51884;DHT22;37915;53.254;6.598;2023-03-16T19:05:37;7.20;99.90
51884;DHT22;37915;53.254;6.598;2023-03-16T19:08:03;7.20;99.90
51884;DHT22;37915;53.254;6.598;2023-03-16T19:10:30;7.20;99.90
51884;DHT22;37915;53.254;6.598;2023-03-16T19:12:56;7.20;99.90
51884;DHT22;37915;53.254;6.598;2023-03-16T19:15:24;7.20;99.90
51884;DHT22;37915;53.254;6.598;2023-03-16T19:17:50;7.30;99.90
51884;DHT22;37915;53.254;6.598;2023-03-16T19:20:17;7.20;99.90
51884;DHT22;37915;53.254;6.598;2023-03-16T19:22:43;7.20;99.90
51884;DHT22;37915;53.254;6.598;2023-03-16T19:25:17;7.20;99.90
51884;DHT22;37915;53.254;6.598;2023-03-16T19:27:44;7.20;99.90
51884;DHT22;37915;53.254;6.598;2023-03-16T19:30:28;7.20;99.90
51884;DHT22;37915;53.254;6.598;2023-03-16T19:32:55;7.20;99.90
51884;DHT22;37915;53.254;6.598;2023-03-16T19:35:21;7.20;99.90
51884;DHT22;37915;53.254;6.598;2023-03-16T19:37:47;7.20;99.90
51884;DHT22;37915;53.254;6.598;2023-03-16T19:40:14;7.20;99.90
51884;DHT22;37915;53.254;6.598;2023-03-16T19:42:39;7.30;99.90
51884;DHT22;37915;53.254;6.598;2023-03-16T19:45:13;7.30;99.90
51884;DHT22;37915;53.254;6.598;2023-03-16T19:47:39;7.30;99.90
51884;DHT22;37915;53.254;6.598;2023-03-16T19:50:12;7.20;99.90
51884;DHT22;37915;53.254;6.598;2023-03-16T19:52:37;7.20;99.90
51884;DHT22;37915;53.254;6.598;2023-03-16T19:55:03;7.20;99.90
51884;DHT22;37915;53.254;6.598;2023-03-16T19:57:29;7.20;99.90
51884;DHT22;37915;53.254;6.598;2023-03-16T19:59:55;7.20;99.90
51884;DHT22;37915;53.254;6.598;2023-03-16T20:04:47;7.20;99.90
51884;DHT22;37915;53.254;6.598;2023-03-16T20:07:13;7.20;99.90
51884;DHT22;37915;53.254;6.598;2023-03-16T20:09:39;7.10;99.90
51884;DHT22;37915;53.254;6.598;2023-03-16T20:12:05;7.20;99.90
51884;DHT22;37915;53.254;6.598;2023-03-16T20:14:31;7.10;99.90
51884;DHT22;37915;53.254;6.598;2023-03-16T20:16:57;7.10;99.90
51884;DHT22;37915;53.254;6.598;2023-03-16T20:19:23;7.10;99.90
51884;DHT22;37915;53.254;6.598;2023-03-16T20:21:48;7.10;99.90
51884;DHT22;37915;53.254;6.598;2023-03-16T20:24:15;7.10;99.90
51884;DHT22;37915;53.254;6.598;2023-03-16T20:26:41;7.00;99.90
51884;DHT22;37915;53.254;6.598;2023-03-16T20:29:19;7.00;99.90
51884;DHT22;37915;53.254;6.598;2023-03-16T20:31:46;7.00;99.90
51884;DHT22;37915;53.254;6.598;2023-03-16T20:34:25;7.00;99.90
51884;DHT22;37915;53.254;6.598;2023-03-16T20:36:51;6.90;99.90
51884;DHT22;37915;53.254;6.598;2023-03-16T20:39:17;7.00;99.90
51884;DHT22;37915;53.254;6.598;2023-03-16T20:41:43;6.90;99.90
51884;DHT22;37915;53.254;6.598;2023-03-16T20:44:11;6.90;99.90
51884;DHT22;37915;53.254;6.598;2023-03-16T20:46:38;6.80;99.90
51884;DHT22;37915;53.254;6.598;2023-03-16T20:49:48;6.80;99.90
51884;DHT22;37915;53.254;6.598;2023-03-16T20:51:54;6.80;99.90
51884;DHT22;37915;53.254;6.598;2023-03-16T20:54:20;6.80;99.90
51884;DHT22;37915;53.254;6.598;2023-03-16T20:56:46;6.80;99.90
51884;DHT22;37915;53.254;6.598;2023-03-16T20:59:15;6.80;99.90
51884;DHT22;37915;53.254;6.598;2023-03-16T21:01:41;6.80;99.90
51884;DHT22;37915;53.254;6.598;2023-03-16T21:04:12;6.80;99.90
51884;DHT22;37915;53.254;6.598;2023-03-16T21:06:43;6.90;99.90
51884;DHT22;37915;53.254;6.598;2023-03-16T21:09:12;6.90;99.90
51884;DHT22;37915;53.254;6.598;2023-03-16T21:11:38;6.90;99.90
51884;DHT22;37915;53.254;6.598;2023-03-16T21:14:04;6.90;99.90
51884;DHT22;37915;53.254;6.598;2023-03-16T21:16:30;6.90;99.90
51884;DHT22;37915;53.254;6.598;2023-03-16T21:18:56;6.90;99.90
51884;DHT22;37915;53.254;6.598;2023-03-16T21:21:21;6.90;99.90
51884;DHT22;37915;53.254;6.598;2023-03-16T21:23:47;7.00;99.90
51884;DHT22;37915;53.254;6.598;2023-03-16T21:26:23;7.10;99.90
51884;DHT22;37915;53.254;6.598;2023-03-16T21:28:57;7.00;99.90
51884;DHT22;37915;53.254;6.598;2023-03-16T21:31:24;7.10;99.90
51884;DHT22;37915;53.254;6.598;2023-03-16T21:33:50;7.10;99.90
51884;DHT22;37915;53.254;6.598;2023-03-16T21:36:19;7.20;99.90
51884;DHT22;37915;53.254;6.598;2023-03-16T21:38:45;7.20;99.90
51884;DHT22;37915;53.254;6.598;2023-03-16T21:41:11;7.30;99.90
51884;DHT22;37915;53.254;6.598;2023-03-16T21:43:37;7.40;99.90
51884;DHT22;37915;53.254;6.598;2023-03-16T21:46:04;7.50;99.90
51884;DHT22;37915;53.254;6.598;2023-03-16T21:48:35;7.60;99.90
51884;DHT22;37915;53.254;6.598;2023-03-16T21:51:01;7.70;99.90
51884;DHT22;37915;53.254;6.598;2023-03-16T21:53:28;7.70;99.90
51884;DHT22;37915;53.254;6.598;2023-03-16T21:55:54;7.70;99.90
51884;DHT22;37915;53.254;6.598;2023-03-16T21:58:20;7.70;99.90
51884;DHT22;37915;53.254;6.598;2023-03-16T22:00:46;7.70;99.90
51884;DHT22;37915;53.254;6.598;2023-03-16T22:05:43;7.80;99.90
51884;DHT22;37915;53.254;6.598;2023-03-16T22:08:16;7.80;99.90